Historique des mesures à Cassis (13260), France
Quotidien Résumé Mai 2, 2018 Unités:  Métrique    US   Métrique/US
« Précédent (Jour)
Suivant (Jour) »
Quotidien Hebdomadaire Mensuel Annuel Période au choix
  Maximum: Minimum: Moyenne:
Température: TemperatureC °C 11.9 °C 15.2 °C
Point de rosée: DewpointC °C 7.2 °C 8.4 °C
Humidité: Humidity % 50 % 61 %
Vitesse du vent: 0 km/h 0 km/h 13 km/h
Rafales: 0 km/h - -
Vent:- - West
Pression: PressurehPa hPa 1002.3 hPa -
Précipitations: 0.0 mm    
Historical Graphs
 
 
Mesures pour : Mai 2, 2018
Heure Temperature Point de rosée Pression Vent Vitesse du vent Rafales Humidité Pluie (par heure) Conditions
TemperatureC °C DewpointC °C PressurehPa hPa Calm     Humidity % HourlyPrecipMM mm SoftwareType W/m2
00:10 12.8 °C 8.1 °C 1007.3 hPa NNW 5.6 km/h 5.6 km/h 73 % 0.0 mm open2300-1.11 W/m2
01:10 12.3 °C 8.0 °C 1007.0 hPa NE 6.9 km/h 19.6 km/h 75 % 0.0 mm open2300-1.11 W/m2
02:10 12.6 °C 8.1 °C 1006.3 hPa WNW 4.7 km/h 4.7 km/h 74 % 0.0 mm open2300-1.11 W/m2
03:10 12.9 °C 7.8 °C 1005.6 hPa NW 10.3 km/h 10.3 km/h 71 % 0.0 mm open2300-1.11 W/m2
04:12 12.7 °C 7.4 °C 1005.3 hPa NW 13.2 km/h 13.2 km/h 70 % 0.0 mm open2300-1.11 W/m2
05:12 12.7 °C 7.4 °C 1005.0 hPa Calm   6.4 km/h 70 % 0.0 mm open2300-1.11 W/m2
06:11 12.8 °C 7.5 °C 1004.6 hPa NNW 4.2 km/h 4.2 km/h 70 % 0.0 mm open2300-1.11 W/m2
07:11 12.3 °C 7.6 °C 1004.3 hPa Calm     73 % 0.0 mm open2300-1.11 W/m2
08:11 11.9 °C 8.2 °C 1004.6 hPa NNW 3.4 km/h 7.6 km/h 78 % 0.0 mm open2300-1.11 W/m2
09:11 12.9 °C 8.9 °C 1004.6 hPa NNW 9.3 km/h 9.3 km/h 77 % 0.0 mm open2300-1.11 W/m2
10:12 13.9 °C 9.7 °C 1005.0 hPa North 3.4 km/h 8 km/h 76 % 0.0 mm open2300-1.11 W/m2
11:11 15.3 °C 10.1 °C 1004.6 hPa NNW 4.2 km/h 6.4 km/h 71 % 0.0 mm open2300-1.11 W/m2
12:11 16.7 °C 10.1 °C 1004.3 hPa NW 5.6 km/h 26.2 km/h 65 % 0.0 mm open2300-1.11 W/m2
13:11 19.0 °C 10.8 °C 1003.9 hPa ENE 6.4 km/h 6.4 km/h 59 % 0.0 mm open2300-1.11 W/m2
14:11 20.0 °C 10.7 °C 1003.9 hPa NW 15 km/h 15 km/h 55 % 0.0 mm open2300-1.11 W/m2
15:10 20.2 °C 10.6 °C 1003.3 hPa Calm   5.6 km/h 54 % 0.0 mm open2300-1.11 W/m2
16:10 21.1 °C 10.6 °C 1002.3 hPa NW 9.3 km/h 9.3 km/h 51 % 0.0 mm open2300-1.11 W/m2
17:10 19.9 °C 9.2 °C 1002.6 hPa West 23 km/h 39.4 km/h 50 % 0.0 mm open2300-1.11 W/m2
18:10 19.6 °C 9.2 °C 1002.6 hPa WNW 29 km/h 29 km/h 51 % 0.0 mm open2300-1.11 W/m2
19:10 19.4 °C 9.0 °C 1002.3 hPa NNW 9.3 km/h 17.9 km/h 51 % 0.0 mm open2300-1.11 W/m2
20:10 18.3 °C 7.7 °C 1002.6 hPa NNW 24.8 km/h 31.9 km/h 50 % 0.0 mm open2300-1.11 W/m2
21:10 17.5 °C 7.8 °C 1002.6 hPa West 34.1 km/h 47.3 km/h 53 % 0.0 mm open2300-1.11 W/m2
22:10 16.9 °C 7.2 °C 1002.6 hPa NW 52.8 km/h 52.8 km/h 53 % 0.0 mm open2300-1.11 W/m2
23:10 16.6 °C 7.5 °C 1002.3 hPa NNW 53.3 km/h 53.3 km/h 55 % 0.0 mm open2300-1.11 W/m2
Observations météo à CASSIS
WU-History script by Weather Underground - 1 mb